Map

Track Data

SID SEASON NUMBER BASIN SUBBASIN NAME ISO_TIME NATURE LAT LON WMO_WIND WMO_PRES WMO_AGENCY TRACK_TYPE DIST2LAND LANDFALL IFLAG USA_AGENCY USA_ATCF_ID USA_LAT USA_LON USA_RECORD USA_STATUS USA_WIND USA_PRES USA_SSHS USA_R34_NE USA_R34_SE USA_R34_SW USA_R34_NW USA_R50_NE USA_R50_SE USA_R50_SW USA_R50_NW USA_R64_NE USA_R64_SE USA_R64_SW USA_R64_NW USA_POCI USA_ROCI USA_RMW USA_EYE TOKYO_LAT TOKYO_LON TOKYO_GRADE TOKYO_WIND TOKYO_PRES TOKYO_R50_DIR TOKYO_R50_LONG TOKYO_R50_SHORT TOKYO_R30_DIR TOKYO_R30_LONG TOKYO_R30_SHORT TOKYO_LAND CMA_LAT CMA_LON CMA_CAT CMA_WIND CMA_PRES HKO_LAT HKO_LON HKO_CAT HKO_WIND HKO_PRES NEWDELHI_LAT NEWDELHI_LON NEWDELHI_GRADE NEWDELHI_WIND NEWDELHI_PRES NEWDELHI_CI NEWDELHI_DP NEWDELHI_POCI REUNION_LAT REUNION_LON REUNION_TYPE REUNION_WIND REUNION_PRES REUNION_TNUM REUNION_CI REUNION_RMW REUNION_R34_NE REUNION_R34_SE REUNION_R34_SW REUNION_R34_NW REUNION_R50_NE REUNION_R50_SE REUNION_R50_SW REUNION_R50_NW REUNION_R64_NE REUNION_R64_SE REUNION_R64_SW REUNION_R64_NW BOM_LAT BOM_LON BOM_TYPE BOM_WIND BOM_PRES BOM_TNUM BOM_CI BOM_RMW BOM_R34_NE BOM_R34_SE BOM_R34_SW BOM_R34_NW BOM_R50_NE BOM_R50_SE BOM_R50_SW BOM_R50_NW BOM_R64_NE BOM_R64_SE BOM_R64_SW BOM_R64_NW BOM_ROCI BOM_POCI BOM_EYE BOM_POS_METHOD BOM_PRES_METHOD NADI_LAT NADI_LON NADI_CAT NADI_WIND NADI_PRES WELLINGTON_LAT WELLINGTON_LON WELLINGTON_WIND WELLINGTON_PRES DS824_LAT DS824_LON DS824_STAGE DS824_WIND DS824_PRES TD9636_LAT TD9636_LON TD9636_STAGE TD9636_WIND TD9636_PRES TD9635_LAT TD9635_LON TD9635_WIND TD9635_PRES TD9635_ROCI NEUMANN_LAT NEUMANN_LON NEUMANN_CLASS NEUMANN_WIND NEUMANN_PRES MLC_LAT MLC_LON MLC_CLASS MLC_WIND MLC_PRES USA_GUST BOM_GUST BOM_GUST_PER REUNION_GUST REUNION_GUST_PER USA_SEAHGT USA_SEARAD_NE USA_SEARAD_SE USA_SEARAD_SW USA_SEARAD_NW STORM_SPEED STORM_DIR
1971046S18040 1971 22 SI MM JOELLE 1971-02-15 06:00:00 TS -17.8000 39.9400 reunion main 123 123 O____O___OO_O_ jtwc_sh SH191971 -18.0000 39.9000 -1 -17.5000 40.0000 3 9.90000 -18.0000 39.9000 TC 35 -18.0000 39.9000 2 -17.5000 40.0000 TC 35 3 0
1971046S18040 1971 22 SI MM JOELLE 1971-02-15 09:00:00 TS -17.9384 39.9655 main 138 138 P____P___PP_P_ SH191971 -18.0400 39.9525 -1 -17.7700 39.9925 3 -18.0400 39.9525 TC 35 -18.0719 39.9374 2 -17.7700 39.9925 TC 35 3 170
1971046S18040 1971 22 SI MM JOELLE 1971-02-15 12:00:00 TS -18.1090 39.9960 reunion main 155 155 O____O___OP_O_ jtwc_sh SH191971 -18.1000 40.0000 -1 -18.1000 40.0000 99 9.90000 -18.1000 40.0000 TC 35 -18.1450 39.9798 2 -18.1000 40.0000 TC 35 4 169
1971046S18040 1971 22 SI MM JOELLE 1971-02-15 15:00:00 TS -18.3271 40.0375 main 173 173 P____P___PP_P_ SH191971 -18.1925 40.0425 -1 -18.5150 40.0350 99 -18.1925 40.0425 TC 35 -18.2207 40.0324 2 -18.5150 40.0350 TC 37 4 167
1971046S18040 1971 22 SI MM JOELLE 1971-02-15 18:00:00 TS -18.5400 40.1000 reunion main 198 198 O____O___OO_O_ jtwc_sh SH191971 -18.3000 40.1000 -1 -18.9000 40.1000 99 9.90000 -18.3000 40.1000 TC 35 -18.3000 40.1000 2 -18.9000 40.1000 TC 40 4 158
1971046S18040 1971 22 SI MM JOELLE 1971-02-15 21:00:00 TS -18.6832 40.1885 main 223 223 P____P___PP_P_ SH191971 -18.3925 40.1850 -1 -19.1225 40.1925 99 -18.3925 40.1850 TC 35 -18.3862 40.1874 2 -19.1225 40.1925 TC 42 3 146
1971046S18040 1971 22 SI MM JOELLE 1971-02-16 00:00:00 TS -18.8180 40.2996 reunion main 238 238 O____O___OP_O_ jtwc_sh SH191971 -18.5000 40.3000 -1 -19.3000 40.3000 99 9.90000 -18.5000 40.3000 TC 35 -18.4899 40.2979 2 -19.3000 40.3000 TC 45 4 147
1971046S18040 1971 22 SI MM JOELLE 1971-02-16 03:00:00 TS -18.9957 40.4060 main 262 262 P____P___PP_P_ SH191971 -18.6275 40.4351 -1 -19.5499 40.3627 99 -18.6275 40.4351 TC 35 -18.6236 40.4344 2 -19.5499 40.3627 TC 47 5 147
1971046S18040 1971 22 SI MM JOELLE 1971-02-16 06:00:00 TS -19.2000 40.5600 reunion main 292 292 O____O___OO_O_ jtwc_sh SH191971 -18.8000 40.6000 -1 -19.8000 40.5000 3 9.90000 -18.8000 40.6000 TC 35 -18.8000 40.6000 2 -19.8000 40.5000 TC 50 6 139
1971046S18040 1971 22 SI MM JOELLE 1971-02-16 09:00:00 TS -19.4152 40.7915 main 323 320 P____P___PP_P_ SH191971 -19.0275 40.7851 -1 -19.9925 40.7977 3 -19.0275 40.7851 TC 35 -19.0360 40.7920 2 -19.9925 40.7977 TC 52 7 133
1971046S18040 1971 22 SI MM JOELLE 1971-02-16 12:00:00 TS -19.6625 41.0825 reunion main 313 268 O____O___OP_O_ jtwc_sh SH191971 -19.3000 41.0000 -1 -20.2000 41.2000 99 9.90000 -19.3000 41.0000 TC 35 -19.3125 41.0123 2 -20.2000 41.2000 TC 55 8 134
1971046S18040 1971 22 SI MM JOELLE 1971-02-16 15:00:00 TS -19.9676 41.4042 main 268 230 P____P___PP_P_ SH191971 -19.6075 41.2425 -1 -20.5075 41.6423 99 -19.6075 41.2425 TC 35 -19.6078 41.2515 2 -20.5075 41.6423 TC 55 9 134
1971046S18040 1971 22 SI MM JOELLE 1971-02-16 18:00:00 TS -20.2600 41.7400 reunion main 223 191 O____O___OO_O_ jtwc_sh SH191971 -19.9000 41.5000 -1 -20.8000 42.1000 99 9.90000 -19.9000 41.5000 TC 35 -19.9000 41.5000 2 -20.8000 42.1000 TC 55 8 128
1971046S18040 1971 22 SI MM JOELLE 1971-02-16 21:00:00 TS -20.4533 42.0560 main 176 153 P____P___PP_P_ SH191971 -20.1000 41.7502 -1 -20.9650 42.5303 99 -20.1000 41.7502 TC 35 -20.1365 41.7193 2 -20.9650 42.5303 TC 60 7 123
1971046S18040 1971 22 SI MM JOELLE 1971-02-17 00:00:00 TS -20.6339 42.3498 reunion main 153 108 O____O___OP_O_ jtwc_sh SH191971 -20.3000 42.0000 -1 -21.1000 42.9000 99 9.90000 -20.3000 42.0000 TC 35 -20.3695 41.9489 2 -21.1000 42.9000 TC 65 7 129
1971046S18040 1971 22 SI MM JOELLE 1971-02-17 03:00:00 TS -20.8714 42.6039 main 108 79 P____P___PP_P_ SH191971 -20.5774 42.2352 -1 -21.2923 43.1726 99 -20.5774 42.2352 TC 35 -20.6177 42.2039 2 -21.2923 43.1726 TC 52 7 137
1971046S18040 1971 22 SI MM JOELLE 1971-02-17 06:00:00 TS -21.1400 42.8600 reunion main 70 41 O____O___OO_O_ jtwc_sh SH191971 -20.9000 42.5000 -1 -21.5000 43.4000 4 9.90000 -20.9000 42.5000 TC 35 -20.9000 42.5000 2 -21.5000 43.4000 TC 40 8 137
1971046S18040 1971 22 SI MM JOELLE 1971-02-17 09:00:00 TS -21.4248 43.1622 main 31 0 P____P___PP_P_ SH191971 -21.2349 42.8202 -1 -21.7075 43.6650 4 -21.2349 42.8202 TC 35 -21.2389 42.8407 2 -21.7075 43.6650 TC 37 8 135
1971046S18040 1971 22 SI MM JOELLE 1971-02-17 12:00:00 TS -21.7224 43.4851 reunion main 0 0 O____O___OP_O_ jtwc_sh SH191971 -21.6000 43.2000 -1 -21.9000 43.9000 99 9.90000 -21.6000 43.2000 TC 35 -21.6122 43.2253 2 -21.9000 43.9000 TC 35 8 135
1971046S18040 1971 22 SI MM JOELLE 1971-02-17 15:00:00 TS -22.0178 43.8006 main 0 0 P____P___PP_P_ SH191971 -21.9999 43.6276 -1 -22.0424 44.0502 99 -21.9999 43.6276 TC 35 -22.0044 43.6473 2 -22.0424 44.0502 TC 32 9 135
1971046S18040 1971 22 SI MM JOELLE 1971-02-17 18:00:00 TS -22.3200 44.1400 reunion main 0 0 O____O___OO_O_ jtwc_sh SH191971 -22.4000 44.1000 -1 -22.2000 44.2000 99 9.90000 -22.4000 44.1000 TC 35 -22.4000 44.1000 2 -22.2000 44.2000 TC 30 9 133
1971046S18040 1971 22 SI MM JOELLE 1971-02-17 21:00:00 TS -22.6415 44.5320 main 0 0 P____P___PP_P_ SH191971 -22.7499 44.5929 -1 -22.4501 44.4498 99 -22.7499 44.5929 TC 35 -22.8075 44.5748 2 -22.4501 44.4498 TC 27 10 131
1971046S18040 1971 22 SI MM JOELLE 1971-02-18 00:00:00 TS -22.9620 44.9353 reunion main 0 0 O____O___OP_O_ jtwc_sh SH191971 -23.1000 45.1000 -1 -22.7000 44.7000 99 9.90000 -23.1000 45.1000 TC 35 -23.2100 45.0766 2 -22.7000 44.7000 TC 25 9 132
1971046S18040 1971 22 SI MM JOELLE 1971-02-18 03:00:00 TS -23.2653 45.2892 main 0 0 P____P___PP_P_ SH191971 -23.5223 45.5999 -1 -22.8498 44.8279 99 -23.5223 45.5999 TC 35 -23.5825 45.5903 2 -22.8498 44.8279 TC 22 9 131
1971046S18040 1971 22 SI MM JOELLE 1971-02-18 06:00:00 TS -23.5400 45.6600 reunion main 0 0 O____O___OO_O_ jtwc_sh SH191971 -23.9000 46.1000 -1 -23.0000 45.0000 99 9.90000 -23.9000 46.1000 TC 35 -23.9000 46.1000 2 -23.0000 45.0000 TC 20 9 124
1971046S18040 1971 22 SI MM JOELLE 1971-02-18 09:00:00 TS -23.7722 46.1051 main 0 0 P____P___PP_P_ SH191971 -24.1374 46.6079 -1 -23.2351 45.3549 99 -24.1374 46.6079 TC 35 -24.1160 46.6001 2 -23.2351 45.3549 TC 20 9 117
1971046S18040 1971 22 SI MM JOELLE 1971-02-18 12:00:00 TS -23.9759 46.5779 reunion main 0 0 O____O___OP_O_ jtwc_sh SH191971 -24.3000 47.1000 -1 -23.5000 45.8000 99 9.90000 -24.3000 47.1000 TC 35 -24.2797 47.0897 2 -23.5000 45.8000 TC 20 9 114
1971046S18040 1971 22 SI MM JOELLE 1971-02-18 15:00:00 TS -24.1537 47.0381 main 0 0 P____P___PP_P_ SH191971 -24.4424 47.5653 -1 -23.7275 46.2503 99 -24.4424 47.5653 TC 35 -24.4286 47.5593 2 -23.7275 46.2503 TC 20 9 115
1971046S18040 1971 22 SI MM JOELLE 1971-02-18 18:00:00 TS -24.3600 47.4800 reunion main 20 20 O____O___OO_O_ jtwc_sh SH191971 -24.6000 48.0000 -1 -24.0000 46.7000 99 9.90000 -24.6000 48.0000 TC 35 -24.6000 48.0000 2 -24.0000 46.7000 TC 20 10 121
1971046S18040 1971 22 SI MM JOELLE 1971-02-18 21:00:00 TS -24.6694 47.9923 main 74 74 P____P___PP_P_ SH191971 -24.8274 48.4151 -1 -24.3786 47.1300 99 -24.8274 48.4151 TC 35 -24.8136 48.4404 2 -24.3786 47.1300 TC 27 11 126
1971046S18040 1971 22 SI MM JOELLE 1971-02-19 00:00:00 TS -25.0150 48.4869 reunion main 133 133 O____O___OP_O_ jtwc_sh SH191971 -25.1000 48.8000 -1 -24.8000 47.5000 99 9.90000 -25.1000 48.8000 TC 35 -25.0599 48.8476 2 -24.8000 47.5000 TC 35 11 127
1971046S18040 1971 22 SI MM JOELLE 1971-02-19 03:00:00 TS -25.3589 48.9854 main 196 196 P____P___PP_P_ SH191971 -25.3699 49.1653 -1 -25.1384 47.8049 99 -25.3699 49.1653 TC 35 -25.3513 49.2060 2 -25.1384 47.8049 TC 11 127
1971046S18040 1971 22 SI MM JOELLE 1971-02-19 06:00:00 TS -25.7000 49.5000 reunion main 253 253 O____P___OO_P_ jtwc_sh SH191971 -25.7000 49.5000 -1 -25.4329 48.0274 99 -25.7000 49.5000 TC 35 -25.7000 49.5000 2 -25.4329 48.0274 TC 11 135
1971046S18040 1971 22 SI MM JOELLE 1971-02-19 09:00:00 TS -26.1257 49.8421 main 297 297 P____P___PP_P_ SH191971 -26.1201 49.8521 -1 -25.6937 48.1683 99 -26.1201 49.8521 TC 35 -26.1369 49.8222 2 -25.6937 48.1683 TC 11 150
1971046S18040 1971 22 SI MM JOELLE 1971-02-19 12:00:00 TS -26.6086 50.0888 reunion main 349 349 O____P___OP_P_ jtwc_sh SH191971 -26.6000 50.1000 -1 -25.9305 48.2284 99 -26.6000 50.1000 TC 35 -26.6259 50.0665 2 -25.9305 48.2284 TC 10 162
1971046S18040 1971 22 SI MM JOELLE 1971-02-19 15:00:00 TS -27.1138 50.1959 main 388 388 P____P___PP_P_ SH191971 -27.1072 50.2048 -1 -26.1529 48.2084 99 -27.1072 50.2048 TC 35 -27.1270 50.1779 2 -26.1529 48.2084 TC 10 179
1971046S18040 1971 22 SI MM JOELLE 1971-02-19 18:00:00 TS -27.6000 50.1000 reunion main 416 416 O____P___OO_P_ jtwc_sh SH191971 -27.6000 50.1000 -1 -26.3707 48.1095 99 -27.6000 50.1000 TC 35 -27.6000 50.1000 2 -26.3707 48.1095 TC 10 201
1971046S18040 1971 22 SI MM JOELLE 1971-02-19 21:00:00 TS -28.0220 49.7997 main 426 425 P____P___PP_P_ SH191971 -28.0298 49.7976 -1 -26.5933 47.9326 99 -28.0298 49.7976 TC 35 -28.0063 49.8037 2 -26.5933 47.9326 TC 11 222
1971046S18040 1971 22 SI MM JOELLE 1971-02-20 00:00:00 TS -28.3917 49.3050 reunion main 433 428 O____P___OP_P_ jtwc_sh SH191971 -28.4000 49.3000 -1 -26.8299 47.6784 99 -28.4000 49.3000 TC 35 -28.3751 49.3150 2 -26.8299 47.6784 TC 12 234
1971046S18040 1971 22 SI MM JOELLE 1971-02-20 03:00:00 TS -28.7221 48.6945 main 433 432 P____P___PP_P_ SH191971 -28.7300 48.6950 -1 -27.0898 47.3478 99 -28.7300 48.6950 TC 35 -28.7062 48.6936 2 -27.0898 47.3478 TC 13 242
1971046S18040 1971 22 SI MM JOELLE 1971-02-20 06:00:00 TS -29.0000 48.0000 reunion main 440 438 O____P___OO_P_ jtwc_sh SH191971 -29.0000 48.0000 -1 -27.3822 46.9411 99 -29.0000 48.0000 TC 35 -29.0000 48.0000 2 -27.3822 46.9411 TC 13 247
1971046S18040 1971 22 SI MM JOELLE 1971-02-20 09:00:00 TS -29.2224 47.3198 main 439 413 P____P___PP_P_ SH191971 -29.2071 47.3143 -1 -27.7160 46.4585 99 -29.2071 47.3143 TC 35 -29.2530 47.3308 2 -27.7160 46.4585 TC 13 260
1971046S18040 1971 22 SI MM JOELLE 1971-02-20 12:00:00 MX -29.2351 46.5021 reunion main 413 411 O____O___OP_O_ jtwc_sh SH191971 -29.4000 46.6000 -1 -28.1000 45.9000 99 9.90000 -29.4000 46.6000 TC 35 -29.4727 46.6075 2 -28.1000 45.9000 EX 40 14 264
1971046S18040 1971 22 SI MM JOELLE 1971-02-20 15:00:00 MX -29.3601 45.7161 main 424 424 P____P___PP_P_ SH191971 -29.6348 45.8497 -1 -28.5163 45.2972 99 -29.6348 45.8497 TC 35 -29.6809 45.8555 2 -28.5163 45.2972 EX 40 14 255
1971046S18040 1971 22 SI MM JOELLE 1971-02-20 18:00:00 MX -29.6000 44.9333 reunion main 447 447 O____O___OO_O_ jtwc_sh SH191971 -29.9000 45.1000 -1 -29.0000 44.6000 99 9.90000 -29.9000 45.1000 TC 35 -29.9000 45.1000 2 -29.0000 44.6000 EX 40 15 248
1971046S18040 1971 22 SI MM JOELLE 1971-02-20 21:00:00 MX -29.9263 44.1267 main 492 492 P____P___PP_P_ SH191971 -30.1994 44.3998 -1 -29.5331 43.7774 99 -30.1994 44.3998 TC 35 -30.1663 44.2791 2 -29.5331 43.7774 EX 40 16 240
1971046S18040 1971 22 SI MM JOELLE 1971-02-21 00:00:00 MX -30.3690 43.3745 reunion main 564 564 O____O___OP_O_ jtwc_sh SH191971 -30.5000 43.7000 -1 -30.2000 43.0000 99 9.90000 -30.5000 43.7000 TC 35 -30.4450 43.4726 2 -30.2000 43.0000 EX 40 16 232
1971046S18040 1971 22 SI MM JOELLE 1971-02-21 03:00:00 MX -30.9183 42.6595 main 640 640 P____P___PP_P_ SH191971 -30.7581 42.8901 -1 -31.1747 42.3816 99 -30.7581 42.8901 TC 35 -30.7259 42.7544 2 -31.1747 42.3816 EX 40 15 226
1971046S18040 1971 22 SI MM JOELLE 1971-02-21 06:00:00 MX -31.4000 42.1200 reunion main 714 714 O____O___OO_O_ jtwc_sh SH191971 -31.0000 42.2000 -1 -32.0000 42.0000 5 9.90000 -31.0000 42.2000 TC 35 -31.0000 42.2000 2 -32.0000 42.0000 EX 40 10 224
1971046S18040 1971 22 SI MM JOELLE 1971-02-21 09:00:00 MX -31.6325 41.8565 main 742 742 P____P___PP_P_ SH191971 -31.2494 41.7798 -1 -32.2046 41.9234 5 -31.2494 41.7798 TC 35 -31.2546 41.8760 2 -32.2046 41.9234 EX 40 5 217
1971046S18040 1971 22 SI MM JOELLE 1971-02-21 12:00:00 MX -31.7809 41.7845 reunion main 767 767 O____O___OP_O_ jtwc_sh SH191971 -31.5000 41.6000 -1 -32.2000 42.0000 99 9.90000 -31.5000 41.6000 TC 35 -31.5046 41.7225 2 -32.2000 42.0000 EX 40 4 190
1971046S18040 1971 22 SI MM JOELLE 1971-02-21 15:00:00 MX -32.0105 41.7784 main 787 787 P____P___PP_P_ SH191971 -31.7499 41.6045 -1 -32.4000 42.0000 99 -31.7499 41.6045 TC 35 -31.7524 41.6829 2 -32.4000 42.0000 EX 40 5 174
1971046S18040 1971 22 SI MM JOELLE 1971-02-21 18:00:00 MX -32.2400 41.8200 reunion main 807 807 O____O___OO_O_ jtwc_sh SH191971 -32.0000 41.7000 -1 -32.6000 42.0000 99 9.90000 -32.0000 41.7000 TC 35 -32.0000 41.7000 2 -32.6000 42.0000 EX 40 4 176
1971046S18040 1971 22 SI MM JOELLE 1971-02-21 21:00:00 MX -32.4262 41.8124 main 827 827 P____P___PP_P_ SH191971 -32.2500 41.7001 -1 -32.7150 42.0000 99 -32.2500 41.7001 TC 30 -32.2011 41.6618 2 -32.7150 42.0000 EX 40 4 183
1971046S18040 1971 22 SI MM JOELLE 1971-02-22 00:00:00 MX -32.6020 41.8136 reunion main 847 847 O____O___OP_O_ jtwc_sh SH191971 -32.5000 41.7000 -1 -32.8000 42.0000 99 9.90000 -32.5000 41.7000 TC 25 -32.4098 41.6682 2 -32.8000 42.0000 EX 40 3 176
1971046S18040 1971 22 SI MM JOELLE 1971-02-22 03:00:00 MX -32.7657 41.8253 main 868 868 P____P___PP_P_ SH191971 -32.7200 41.7351 -1 -32.8624 41.9703 99 -32.7200 41.7351 TC 25 -32.6636 41.7155 2 -32.8624 41.9703 EX 40 4 172
1971046S18040 1971 22 SI MM JOELLE 1971-02-22 06:00:00 MX -33.0000 41.8800 reunion main 885 885 O____O___OO_O_ jtwc_sh SH191971 -33.0000 41.8000 -1 -33.0000 42.0000 5 9.90000 -33.0000 41.8000 TC 25 -33.0000 41.8000 1 -33.0000 42.0000 EX 40 6 169
1971046S18040 1971 22 SI MM JOELLE 1971-02-22 09:00:00 MX -33.3787 41.9698 main 923 923 P____P___PP_P_ SH191971 -33.3900 41.8779 -1 -33.3343 42.0878 5 -33.3900 41.8779 TC 25 -33.4452 41.9178 1 -33.3343 42.0878 EX 40 9 162
1971046S18040 1971 22 SI MM JOELLE 1971-02-22 12:00:00 MX -33.8201 42.1992 reunion main 959 959 O____O___OP_O_ jtwc_sh SH191971 -33.9000 42.0000 -1 -33.7000 42.4000 99 9.90000 -33.9000 42.0000 TC 25 -33.9803 42.0622 1 -33.7000 42.4000 EX 40 10 144
1971046S18040 1971 22 SI MM JOELLE 1971-02-22 15:00:00 MX -34.1911 42.6898 main 989 987 P____P___PP_P_ SH191971 -34.5201 42.1816 -1 -33.9305 43.0599 99 -34.5201 42.1816 TC 25 -34.5753 42.2256 1 -33.9305 43.0599 EX 40 12 118
1971046S18040 1971 22 SI MM JOELLE 1971-02-22 18:00:00 MX -34.4000 43.4909 reunion main 995 972 O____O___OO_O_ jtwc_sh SH191971 -35.2000 42.4000 -1 -34.1000 43.9000 99 9.90000 -35.2000 42.4000 TC 25 -35.2000 42.4000 6 -34.1000 43.9000 EX 40 17 94
1971046S18040 1971 22 SI MM JOELLE 1971-02-22 21:00:00 ET -34.3097 44.6990 main 972 971 _____P______P_ SH191971 -1 -34.3097 44.6990 99 TC 6 -34.3097 44.6990 EX 40 17 90
1971046S18040 1971 22 SI MM JOELLE 1971-02-23 00:00:00 ET -34.4000 45.5000 reunion main 982 972 _____O______O_ -1 -34.4000 45.5000 99 9.90000 6 -34.4000 45.5000 EX 40 13 88
1971046S18040 1971 22 SI MM JOELLE 1971-02-23 03:00:00 ET -34.2604 46.3340 main 973 947 _____P______P_ -1 -34.2604 46.3340 99 6 -34.2604 46.3340 EX 40 13 72
1971046S18040 1971 22 SI MM JOELLE 1971-02-23 06:00:00 ET -34.0000 47.0000 reunion main 948 931 _____O______O_ -1 -34.0000 47.0000 5 9.90000 -34.0000 47.0000 EX 40 10 61
1971046S18040 1971 22 SI MM JOELLE 1971-02-23 09:00:00 ET -33.7793 47.3697 main 933 902 _____P______P_ -1 -33.7793 47.3697 5 -33.7793 47.3697 EX 40 7 40
1971046S18040 1971 22 SI MM JOELLE 1971-02-23 12:00:00 ET -33.5000 47.5000 reunion main 902 859 _____O______O_ -1 -33.5000 47.5000 99 9.90000 -33.5000 47.5000 EX 40 7 10
1971046S18040 1971 22 SI MM JOELLE 1971-02-23 15:00:00 ET -33.1224 47.5098 main 859 813 _____P______P_ -1 -33.1224 47.5098 99 -33.1224 47.5098 EX 40 8 354
1971046S18040 1971 22 SI MM JOELLE 1971-02-23 18:00:00 ET -32.7000 47.4000 reunion main 813 768 _____O______O_ -1 -32.7000 47.4000 99 9.90000 -32.7000 47.4000 EX 40 9 348
1971046S18040 1971 22 SI MM JOELLE 1971-02-23 21:00:00 ET -32.2699 47.2875 main 768 720 _____P______P_ -1 -32.2699 47.2875 99 -32.2699 47.2875 EX 37 8 342
1971046S18040 1971 22 SI MM JOELLE 1971-02-24 00:00:00 ET -31.9000 47.1000 reunion main 720 681 _____O______O_ -1 -31.9000 47.1000 99 9.90000 -31.9000 47.1000 EX 35 8 329
1971046S18040 1971 22 SI MM JOELLE 1971-02-24 03:00:00 ET -31.5877 46.8070 main 681 665 _____P______P_ -1 -31.5877 46.8070 99 -31.5877 46.8070 EX 32 6 308
1971046S18040 1971 22 SI MM JOELLE 1971-02-24 06:00:00 ET -31.5000 46.5000 reunion main 665 664 _____O______O_ -1 -31.5000 46.5000 5 9.90000 -31.5000 46.5000 EX 30 5 252
1971046S18040 1971 22 SI MM JOELLE 1971-02-24 09:00:00 ET -31.7524 46.1966 main 695 694 _____P______P_ -1 -31.7524 46.1966 5 -31.7524 46.1966 EX 30 8 206
1971046S18040 1971 22 SI MM JOELLE 1971-02-24 12:00:00 ET -32.2000 46.1000 reunion main 739 739 _____O______O_ -1 -32.2000 46.1000 99 9.90000 -32.2000 46.1000 EX 30 9 171
1971046S18040 1971 22 SI MM JOELLE 1971-02-24 15:00:00 ET -32.6572 46.3643 main 797 797 _____P______P_ -1 -32.6572 46.3643 99 -32.6572 46.3643 EX 30 11 143
1971046S18040 1971 22 SI MM JOELLE 1971-02-24 18:00:00 ET -33.1000 46.9000 reunion main 847 847 _____O______O_ -1 -33.1000 46.9000 99 9.90000 -33.1000 46.9000 EX 30 13 128
1971046S18040 1971 22 SI MM JOELLE 1971-02-24 21:00:00 ET -33.4525 47.5795 main 904 904 _____P______P_ -1 -33.4607 47.5843 99 -33.4360 47.5697 EX 30 13 117
1971046S18040 1971 22 SI MM JOELLE 1971-02-25 00:00:00 ET -33.7000 48.3000 reunion main 943 943 _____O______O_ -1 -33.7000 48.3000 99 9.90000 -33.7000 48.3000 EX 30 11 108
1971046S18040 1971 22 SI MM JOELLE 1971-02-25 03:00:00 NR -33.7922 48.8556 main 971 971 _____P________ -1 -33.7922 48.8556 99 EX 8 97
1971046S18040 1971 22 SI MM JOELLE 1971-02-25 06:00:00 ET -33.8000 49.3000 reunion main 985 _____O________ -1 -33.8000 49.3000 5 9.90000 7 91

About IBTrACS Database

This database is a web-friendly format of International Best Track Archive for Climate Stewardship (IBTrACS), a global best track data archive curated by NOAA dating back to 1842.

Updated: 2021-12-03